• Join FlightAware (Why Join?)
  • Login
  • US Flag 
07:02PM EDT


 

Airport Tracker/Info


-or-


 

Live Flight TrackerFlight Track Log ✈ N2739C ✈ 16-Aug-2013 ✈ KRDU - KRYY

Flight Track Log - Related Links

Times and Time Zones

All times are in EDT time to prevent confusion due to time zone crossing. See the N2739C flight status page for this flight to view local times or setup timezone preferences in your user account.

Time Position Orientation Groundspeed Altitude Reporting Facility
EDT Latitude Longitude Course Direction KTS MPH feet Rate Location/Type
12:51PM 35.8842 -78.7786 321° Northwest 93 107 1,100  Level Washington Center
12:52PM 35.9003 -78.7947 321° Northwest 90 104 2,100 1,140 Climbing Washington Center
12:53PM 35.9164 -78.8211 307° West 99 114 3,200 1,020 Climbing Washington Center
12:54PM 35.9325 -78.8447 310° West 100 115 4,100 480 Climbing Washington Center
12:54PM 35.9589 -78.8742 318° Northwest 137 158 4,100 60 Level Washington Center
12:55PM 35.9700 -78.9233 286° West 159 183 4,300 540 Climbing Washington Center
12:57PM 35.9583 -78.9689 252° West 115 132 5,400 900 Climbing Washington Center
12:58PM 35.9428 -79.0017 240° Southwest 100 115 6,400 900 Climbing Washington Center
12:59PM 35.9378 -79.0272 256° West 94 108 7,100 780 Climbing Washington Center
01:00PM 35.9242 -79.0650 246° West 93 107 8,000 480 Climbing Washington Center
01:01PM 35.9192 -79.0981 259° West 135 155 8,100  Climbing Washington Center
01:03PM 35.8913 -79.1862 266° West  Level Estimated
01:10PM 35.7914 -79.4994 262° West  Level Estimated
01:11PM 35.7954 -79.5465 276° West  Level FlightAware Approximate
01:12PM 35.7995 -79.5937 276° West  Level FlightAware Approximate
01:13PM 35.8017 -79.6442 273° West  Level FlightAware Approximate
01:14PM 35.8034 -79.6916 273° West  Level FlightAware Approximate
01:15PM 35.8052 -79.7390 273° West  Level FlightAware Approximate
01:16PM 35.8069 -79.7864 273° West  Level FlightAware Approximate
01:17PM 35.8087 -79.8338 273° West  Level FlightAware Approximate
01:18PM 35.8104 -79.8812 273° West  Level FlightAware Approximate
01:19PM 35.8120 -79.9286 273° West  Level FlightAware Approximate
01:20PM 35.8137 -79.9760 272° West  Level FlightAware Approximate
01:21PM 35.8153 -80.0234 272° West  Level FlightAware Approximate
01:21PM 35.8706 -80.1231 272° West 158 182 8,000  Level Atlanta Center
01:22PM 35.8170 -80.0708 272° West  Level FlightAware Approximate
01:22PM 35.8700 -80.1719 269° West 159 183 8,000  Level Atlanta Center
01:23PM 35.8186 -80.1182 272° West  Level FlightAware Approximate
01:23PM 35.8694 -80.2156 269° West 151 174 8,000  Level Atlanta Center
01:24PM 35.8202 -80.1656 272° West  Level FlightAware Approximate
01:24PM 35.8672 -80.2847 268° West 162 186 8,100  Level Atlanta Center
01:25PM 35.8217 -80.2130 272° West  Level FlightAware Approximate
01:25PM 35.8689 -80.3386 272° West 152 175 8,200  Level Atlanta Center
01:26PM 35.8683 -80.3897 269° West 159 183 8,000 -120 Descending Atlanta Center
01:27PM 35.8678 -80.4386 269° West 153 176 8,000  Level Atlanta Center
01:28PM 35.8672 -80.4897 269° West 159 183 8,100  Climbing Atlanta Center
01:29PM 35.8667 -80.5411 269° West 159 183 8,100 -60 Level Atlanta Center
01:30PM 35.8661 -80.5950 269° West 159 183 8,000 -60 Descending Atlanta Center
01:31PM 35.8653 -80.6436 269° West 159 183 8,000  Level Atlanta Center
01:32PM 35.8667 -80.6922 272° West 159 183 8,000  Level Atlanta Center
01:33PM 35.8658 -80.7436 269° West 159 183 8,000  Level Atlanta Center
01:34PM 35.8653 -80.7972 269° West 159 183 8,000  Level Atlanta Center
01:35PM 35.8644 -80.8486 269° West 159 183 8,000  Level Atlanta Center
01:36PM 35.8639 -80.9000 269° West 159 183 8,000  Level Atlanta Center
01:37PM 35.8631 -80.9536 269° West 159 183 8,000  Level Atlanta Center
01:38PM 35.8622 -81.0050 269° West 159 183 8,000  Level Atlanta Center
01:39PM 35.8614 -81.0589 269° West 159 183 8,000  Level Atlanta Center
01:40PM 35.8608 -81.1153 269° West 159 183 8,000  Level Atlanta Center
01:41PM 35.8600 -81.1664 269° West 159 183 8,000  Level Atlanta Center
01:42PM 35.8611 -81.2203 271° West 159 183 8,000  Level Atlanta Center
01:43PM 35.8561 -81.2717 263° West 159 183 8,000  Level Atlanta Center
01:44PM 35.8300 -81.3161 234° Southwest 159 183 8,000  Level Atlanta Center
01:45PM 35.8036 -81.3553 230° Southwest 166 191 8,000  Level Atlanta Center
01:46PM 35.7775 -81.3972 233° Southwest 158 182 8,000  Level Atlanta Center
01:47PM 35.7511 -81.4389 232° Southwest 158 182 8,000  Level Atlanta Center
01:48PM 35.7272 -81.4833 237° Southwest 158 182 8,000  Level Atlanta Center
01:49PM 35.7008 -81.5250 232° Southwest 158 182 8,000  Level Atlanta Center
01:50PM 35.6747 -81.5692 234° Southwest 163 188 8,000  Level Atlanta Center
01:51PM 35.6506 -81.6108 234° Southwest 163 188 8,000  Level Atlanta Center
01:52PM 35.6264 -81.6550 236° Southwest 163 188 8,000  Level Atlanta Center
01:53PM 35.6019 -81.6992 236° Southwest 158 182 8,000  Level Atlanta Center
01:54PM 35.5778 -81.7381 233° Southwest 158 182 8,000  Level Atlanta Center
01:55PM 35.5536 -81.7847 238° Southwest 158 182 8,000  Level Atlanta Center
01:56PM 35.5294 -81.8264 235° Southwest 164 189 8,000  Level Atlanta Center
01:57PM 35.5050 -81.8728 237° Southwest 164 189 8,000  Level Atlanta Center
01:58PM 35.4789 -81.9169 234° Southwest 164 189 8,000  Level Atlanta Center
01:59PM 35.4567 -81.9633 240° Southwest 164 189 8,000  Level Atlanta Center
02:00PM 35.4303 -82.0072 234° Southwest 169 194 8,000  Level Atlanta Center
02:01PM 35.4019 -82.0564 235° Southwest 174 200 8,000  Level Atlanta Center
02:02PM 35.3775 -82.1003 236° Southwest 174 200 8,000  Level Atlanta Center
02:03PM 35.3531 -82.1417 234° Southwest 169 194 8,000  Level Atlanta Center
02:04PM 35.3267 -82.1856 234° Southwest 169 194 8,100 -60 Climbing Atlanta Center
02:05PM 35.3003 -82.2294 234° Southwest 162 186 7,900 -60 Descending Atlanta Center
02:06PM 35.2778 -82.2758 239° Southwest 162 186 8,000  Climbing Atlanta Center
02:07PM 35.2514 -82.3194 233° Southwest 162 186 8,000  Level Atlanta Center
02:08PM 35.2269 -82.3606 234° Southwest 162 186 8,000  Level Atlanta Center
02:09PM 35.2025 -82.4019 234° Southwest 155 178 8,000  Level Atlanta Center
02:10PM 35.1781 -82.4431 234° Southwest 157 181 8,000  Level Atlanta Center
02:11PM 35.1514 -82.4817 230° Southwest 160 184 8,000  Level Atlanta Center
02:12PM 35.1289 -82.5200 234° Southwest 153 176 8,000  Level Atlanta Center
02:13PM 35.1044 -82.5664 237° Southwest 158 182 8,000  Level Atlanta Center
02:14PM 35.0778 -82.6125 235° Southwest 158 182 8,100  Climbing Atlanta Center
02:15PM 35.0553 -82.6583 239° Southwest 158 182 8,100  Level Atlanta Center
02:16PM 35.0328 -82.7019 238° Southwest 158 182 8,100  Level Atlanta Center
02:17PM 35.0083 -82.7406 232° Southwest 156 180 8,100  Level Atlanta Center
02:18PM 34.9839 -82.7914 240° Southwest 156 180 8,100  Level Atlanta Center
02:19PM 34.9611 -82.8325 236° Southwest 156 180 8,100  Level Atlanta Center
02:20PM 34.9344 -82.8758 233° Southwest 156 180 8,100  Level Atlanta Center
02:21PM 34.9058 -82.9294 237° Southwest 168 193 8,100  Level Atlanta Center
02:22PM 34.8811 -82.9703 234° Southwest 163 188 8,100  Level Atlanta Center
02:23PM 34.8522 -83.0111 229° Southwest 163 188 8,100  Level Atlanta Center
02:24PM 34.8275 -83.0519 234° Southwest 168 193 8,100  Level Atlanta Center
02:25PM 34.8008 -83.0953 233° Southwest 168 193 8,100  Level Atlanta Center
02:26PM 34.7761 -83.1436 238° Southwest 168 193 8,100 -60 Level Atlanta Center
02:27PM 34.7514 -83.1817 232° Southwest 168 193 8,000  Descending Atlanta Center
02:28PM 34.7267 -83.2275 237° Southwest 163 188 8,100  Climbing Atlanta Center
02:29PM 34.6997 -83.2656 229° Southwest 163 188 8,100 -60 Level Atlanta Center
02:30PM 34.6750 -83.3064 234° Southwest 163 188 8,000  Descending Atlanta Center
02:31PM 34.6439 -83.3369 219° Southwest 151 174 8,100  Climbing Atlanta Center
02:32PM 34.6064 -83.3725 218° Southwest 156 180 8,100  Level Atlanta Center
02:33PM 34.5711 -83.4081 220° Southwest 162 186 8,100 -300 Level Atlanta Center
02:34PM 34.5378 -83.4436 221° Southwest 162 186 7,600 -540 Descending Atlanta Center
02:35PM 34.5089 -83.4817 227° Southwest 162 186 7,100 -660 Descending Atlanta Center
02:36PM 34.4736 -83.5222 223° Southwest 165 190 6,300 -540 Descending Atlanta Center
02:37PM 34.4444 -83.5628 229° Southwest 170 196 6,100 -120 Descending Atlanta Center
02:38PM 34.4092 -83.5981 220° Southwest 170 196 6,100  Level Atlanta Center
02:39PM 34.3781 -83.6311 221° Southwest 158 182 6,100  Level Atlanta Center
02:40PM 34.3489 -83.6714 229° Southwest 158 182 6,100  Level Atlanta Center
02:41PM 34.3239 -83.7092 231° Southwest 153 176 6,100 -60 Level Atlanta Center
02:42PM 34.3117 -83.7622 254° West 158 182 6,000  Descending Atlanta Center
02:43PM 34.3075 -83.8175 265° West 165 190 6,100  Climbing Atlanta Center
02:44PM 34.3014 -83.8703 262° West 160 184 6,100  Level Atlanta Center
02:45PM 34.2931 -83.9231 259° West 160 184 6,100 -120 Level Atlanta Center
02:47PM 34.2833 -84.0000 261° West 158 182 5,900  Descending Atlanta TRACON
02:48PM 34.2667 -84.0500 248° West 163 188 6,100 60 Climbing Atlanta TRACON
02:49PM 34.2500 -84.1000 248° West 159 183 6,100 -60 Level Atlanta TRACON
02:50PM 34.2500 -84.1500 270° West 158 182 6,000  Descending Atlanta TRACON
02:51PM 34.2333 -84.2000 248° West 158 182 6,100  Climbing Atlanta TRACON
02:52PM 34.2167 -84.2500 248° West 157 181 6,100 -60 Level Atlanta TRACON
02:53PM 34.2167 -84.3000 270° West 157 181 6,000  Descending Atlanta TRACON
02:53PM 34.2000 -84.3500 248° West 157 181 6,100  Climbing Atlanta TRACON
02:54PM 34.1833 -84.4000 248° West 159 183 6,000 -60 Descending Atlanta TRACON
02:55PM 34.1833 -84.4500 270° West 155 178 6,000  Level Atlanta TRACON
02:56PM 34.1667 -84.5000 248° West 155 178 6,000  Level Atlanta TRACON
02:57PM 34.1500 -84.5500 248° West 152 175 6,000  Level Atlanta TRACON
02:58PM 34.1500 -84.6000 270° West 153 176 6,000  Level Atlanta TRACON
02:59PM 34.1333 -84.6500 248° West 153 176 6,000  Level Atlanta TRACON
03:00PM 34.1167 -84.7000 248° West 153 176 6,000  Level Atlanta TRACON
03:01PM 34.1167 -84.7500 270° West 153 176 6,000 -420 Level Atlanta TRACON
03:02PM 34.1000 -84.8000 248° West 163 188 5,300 -900 Descending Atlanta TRACON
03:03PM 34.0833 -84.8500 248° West 187 215 4,300 -840 Descending Atlanta TRACON
03:04PM 34.0333 -84.8333 165° South 149 171 3,600 -720 Descending Atlanta TRACON
03:05PM 34.0167 -84.8167 140° Southeast 152 175 2,900 -420 Descending Atlanta TRACON
03:06PM 34.0167 -84.7667 90° East 142 163 2,800  Descending Atlanta TRACON
03:07PM 34.0167 -84.7333 90° East 126 145 2,900 -180 Climbing Atlanta TRACON
03:08PM 34.0167 -84.7000 90° East 115 132 2,500 -480 Descending Atlanta TRACON
03:09PM 34.0167 -84.6667 90° East 88 101 2,000 -300 Descending Atlanta TRACON
03:10PM 34.0167 -84.6333 90° East 90 104 2,000  Level Atlanta TRACON